Antelope, Texas
Current Conditions -  °F | °C
As of 9:50 PM on Wednesday 22 Oct 2014 (Local Time) from KRPH Reporting Station
Broken Clouds Broken Clouds  
Wind Chill: 67°   Ceiling: 9000
Heat Index: 67°   Visibility: 10mi
Dew Point: 64°   Wind: 0mph
Humidity: 90%   Direction: NA
Pressure: 30.09"   Gusts: NA
Location:  33.4259°N, 98.383°W
Report Text: KRPH 230250Z AUTO 00000KT 10SM SCT048 BKN090 BKN110 19/18 A3009 RMK AO2 T01920176
Loading
Personal Weather Stations






























Interactive Weather Map
Tropical Storm Tracking
New forecast layout! Learn more

10-Day Weather Forecast

Advertisements
Track Severe Weather on mobile